Time,TemperatureF,DewpointF,PressureIn,WindDirection,WindDirectionDegrees,WindSpeedMPH,WindSpeedGustMPH,Humidity,HourlyPrecipIn,Conditions,Clouds,dailyrainin,SoftwareType,DateUTC
2017-11-22 10:03:00,42.1,27.1,29.73,South,180,3.2,-999.0,55,-99.99,,,0.00,,2017-11-22 16:03:00,
2017-11-22 10:09:00,43.0,27.5,30.08,SSE,157,4.7,-999.0,54,-99.99,,,0.00,,2017-11-22 16:09:00,
2017-11-22 10:10:00,42.8,26.8,30.08,SSE,157,4.7,-999.0,53,-99.99,,,0.00,,2017-11-22 16:10:00,
2017-11-22 10:13:00,43.2,27.7,30.08,South,180,3.7,-999.0,54,-99.99,,,0.00,,2017-11-22 16:13:00,
2017-11-22 10:18:00,43.2,27.2,30.07,SE,135,4.7,-999.0,53,-99.99,,,0.00,,2017-11-22 16:18:00,
2017-11-22 10:21:00,43.5,27.5,30.07,West,270,3.7,-999.0,53,-99.99,,,0.00,,2017-11-22 16:21:00,
2017-11-22 10:26:00,43.3,26.8,30.07,East,90,3.7,-999.0,52,-99.99,,,0.00,,2017-11-22 16:26:00,
2017-11-22 10:27:00,43.7,27.2,30.07,NW,315,4.7,-999.0,52,-99.99,,,0.00,,2017-11-22 16:27:00,
2017-11-22 10:43:00,45.3,28.2,30.06,North,360,8.9,-999.0,51,-99.99,,,0.00,,2017-11-22 16:43:00,
2017-11-22 10:54:00,45.3,28.2,30.05,West,270,3.7,-999.0,51,-99.99,,,0.00,,2017-11-22 16:54:00,
2017-11-22 11:04:00,45.3,28.2,30.05,SW,225,4.2,-999.0,51,-99.99,,,0.00,,2017-11-22 17:04:00,
2017-11-22 11:14:00,45.3,28.2,30.05,ENE,67,7.3,-999.0,51,-99.99,,,0.00,,2017-11-22 17:14:00,
2017-11-22 11:16:00,45.0,27.9,30.05,SSE,157,5.8,-999.0,51,-99.99,,,0.00,,2017-11-22 17:16:00,
2017-11-22 11:26:00,46.2,29.1,30.05,ENE,67,7.3,-999.0,51,-99.99,,,0.00,,2017-11-22 17:26:00,
2017-11-22 11:31:00,45.3,29.2,30.03,ESE,112,3.2,-999.0,53,-99.99,,,0.00,,2017-11-22 17:31:00,
2017-11-22 11:36:00,44.8,28.7,30.03,ESE,112,8.9,-999.0,53,-99.99,,,0.00,,2017-11-22 17:36:00,
2017-11-22 11:46:00,46.0,29.4,30.03,ESE,112,5.8,-999.0,52,-99.99,,,0.00,,2017-11-22 17:46:00,
2017-11-22 11:51:00,46.0,29.4,30.03,ESE,112,6.3,-999.0,52,-99.99,,,0.00,,2017-11-22 17:51:00,
2017-11-22 11:56:00,46.0,29.8,30.03,SSW,202,3.7,-999.0,53,-99.99,,,0.00,,2017-11-22 17:56:00,
2017-11-22 12:06:00,46.4,29.2,30.02,WNW,292,7.3,-999.0,51,-99.99,,,0.00,,2017-11-22 18:06:00,
2017-11-22 12:12:00,46.4,29.2,30.02,ESE,112,4.2,-999.0,51,-99.99,,,0.00,,2017-11-22 18:12:00,
2017-11-22 12:17:00,46.0,28.9,30.02,NW,315,6.3,-999.0,51,-99.99,,,0.00,,2017-11-22 18:17:00,
2017-11-22 12:22:00,47.1,29.9,30.02,SSE,157,2.7,-999.0,51,-99.99,,,0.00,,2017-11-22 18:22:00,
2017-11-22 12:28:00,47.5,30.3,30.02,West,270,3.7,-999.0,51,-99.99,,,0.00,,2017-11-22 18:28:00,
2017-11-22 12:33:00,48.4,30.1,30.02,ENE,67,2.2,-999.0,49,-99.99,,,0.00,,2017-11-22 18:33:00,
2017-11-22 12:38:00,48.0,29.7,30.02,ESE,112,2.7,-999.0,49,-99.99,,,0.00,,2017-11-22 18:38:00,
2017-11-22 12:41:00,48.2,29.9,30.02,ESE,112,3.2,-999.0,49,-99.99,,,0.00,,2017-11-22 18:41:00,
2017-11-22 12:46:00,49.1,30.2,30.02,ESE,112,5.3,-999.0,48,-99.99,,,0.00,,2017-11-22 18:46:00,
2017-11-22 13:02:00,47.1,28.9,30.02,SE,135,5.3,-999.0,49,-99.99,,,0.00,,2017-11-22 19:02:00,
2017-11-22 13:12:00,47.5,29.3,30.01,ESE,112,2.7,-999.0,49,-99.99,,,0.00,,2017-11-22 19:12:00,
2017-11-22 13:17:00,48.6,30.8,30.00,SE,135,3.7,-999.0,50,-99.99,,,0.00,,2017-11-22 19:17:00,
2017-11-22 13:22:00,48.6,29.8,30.00,West,270,5.8,-999.0,48,-99.99,,,0.00,,2017-11-22 19:22:00,
2017-11-22 13:27:00,48.6,30.3,30.00,South,180,1.7,-999.0,49,-99.99,,,0.00,,2017-11-22 19:27:00,
2017-11-22 13:32:00,50.9,30.3,30.00,West,270,3.2,-999.0,45,-99.99,,,0.00,,2017-11-22 19:32:00,
2017-11-22 13:38:00,49.8,29.8,30.00,ESE,112,3.7,-999.0,46,-99.99,,,0.00,,2017-11-22 19:38:00,
2017-11-22 13:43:00,48.7,29.9,29.99,East,90,3.7,-999.0,48,-99.99,,,0.00,,2017-11-22 19:43:00,
2017-11-22 13:48:00,48.0,30.2,29.99,South,180,1.7,-999.0,50,-99.99,,,0.00,,2017-11-22 19:48:00,
2017-11-22 13:53:00,49.1,30.2,30.00,West,270,1.1,-999.0,48,-99.99,,,0.00,,2017-11-22 19:53:00,
2017-11-22 13:59:00,49.5,30.6,30.00,West,270,2.2,-999.0,48,-99.99,,,0.00,,2017-11-22 19:59:00,
2017-11-22 14:05:00,48.9,30.6,29.98,ESE,112,4.7,-999.0,49,-99.99,,,0.00,,2017-11-22 20:05:00,
2017-11-22 14:11:00,47.7,30.0,29.98,SE,135,3.7,-999.0,50,-99.99,,,0.00,,2017-11-22 20:11:00,
2017-11-22 14:16:00,48.0,30.2,29.98,SE,135,3.7,-999.0,50,-99.99,,,0.00,,2017-11-22 20:16:00,
2017-11-22 14:26:00,49.1,30.8,29.98,ESE,112,2.7,-999.0,49,-99.99,,,0.00,,2017-11-22 20:26:00,
2017-11-22 14:31:00,48.4,30.6,29.98,ESE,112,4.7,-999.0,50,-99.99,,,0.00,,2017-11-22 20:31:00,
2017-11-22 14:36:00,48.7,30.9,29.98,NE,45,2.2,-999.0,50,-99.99,,,0.00,,2017-11-22 20:36:00,
2017-11-22 14:47:00,49.8,30.9,29.98,East,90,2.7,-999.0,48,-99.99,,,0.00,,2017-11-22 20:47:00,
2017-11-22 14:52:00,50.9,30.8,29.98,NNW,337,1.7,-999.0,46,-99.99,,,0.00,,2017-11-22 20:52:00,
2017-11-22 14:58:00,50.4,30.4,29.98,SW,225,2.2,526.9,46,-99.99,,,0.00,,2017-11-22 20:58:00,
2017-11-22 15:03:00,50.5,30.5,29.97,SE,135,2.2,526.9,46,-99.99,,,0.00,,2017-11-22 21:03:00,
2017-11-22 15:09:00,51.1,30.5,29.97,North,360,2.2,-999.0,45,-99.99,,,0.00,,2017-11-22 21:09:00,
2017-11-22 15:15:00,50.2,29.7,29.97,North,360,2.7,-999.0,45,-99.99,,,0.00,,2017-11-22 21:15:00,
2017-11-22 15:20:00,49.5,29.6,29.97,WNW,292,3.2,-999.0,46,-99.99,,,0.00,,2017-11-22 21:20:00,
2017-11-22 15:25:00,49.8,29.3,29.97,West,270,3.7,-999.0,45,-99.99,,,0.00,,2017-11-22 21:25:00,
2017-11-22 15:30:00,48.0,29.2,29.97,West,270,2.7,-999.0,48,-99.99,,,0.00,,2017-11-22 21:30:00,
2017-11-22 15:36:00,48.0,29.2,29.97,SE,135,2.7,-999.0,48,-99.99,,,0.00,,2017-11-22 21:36:00,
2017-11-22 15:46:00,47.8,29.1,29.98,NNW,337,2.7,-999.0,48,-99.99,,,0.00,,2017-11-22 21:46:00,
2017-11-22 15:52:00,48.2,28.9,29.98,NW,315,3.2,-999.0,47,-99.99,,,0.00,,2017-11-22 21:52:00,
2017-11-22 15:57:00,47.1,28.9,29.98,WNW,292,4.2,-999.0,49,-99.99,,,0.00,,2017-11-22 21:57:00,
2017-11-22 16:02:00,47.1,28.9,29.98,South,180,2.7,-999.0,49,-99.99,,,0.00,,2017-11-22 22:02:00,
2017-11-22 16:08:00,47.3,28.6,29.98,NNW,337,2.7,-999.0,48,-99.99,,,0.00,,2017-11-22 22:08:00,
2017-11-22 16:13:00,46.6,28.5,29.98,NW,315,4.7,-999.0,49,-99.99,,,0.00,,2017-11-22 22:13:00,
2017-11-22 16:19:00,45.7,28.1,29.99,WNW,292,3.7,-999.0,50,-99.99,,,0.00,,2017-11-22 22:19:00,